الصفحة الرئيسية
METAR-TAF:

METAR-TAF

مطار :

Mount Gambier, أستراليا

دائرة عرض: 37-44-44S, خط طول: 140-47-07E, ارتفاع: 65 متر

مراقبة الطقس الحالي

تاريخ ووقت الإصدار 33 دقيقة قبل الساعة 18:30UTC
ريح 10 عقدة من الجنوب
درجة الحرارة 11°درجة مئوية
الرطوبة 100%
ضغط 1019 hPa
الرؤية 10 كم أو أكثر
ملبد بالغيوم على ارتفاع 600 قدم

METAR: YMTG 091830Z AUTO 19010KT 9999 // OVC006 11/11 Q1019

زمن: 05:33 (19:03 UTC)


TAF: مفقودة

أرصاد الطقس والتوقعات من أكثر من 4000 مطار (تقارير الطقس للمطار METAR والتنبؤ بالطقس بالمطارTAF).

المحطات المتاحة هي النقط الصفراء والحمراء على الخريطة.

حرك المؤشر فوق النقطة لمعرفة اسم المحطة.

ثم انقر لمعرفة أرصاد وتوقعات الطقس.

لتغيير الخارطة: اضغط على الأزرار الخضراء مع رمز الصليب الأسود للتكبير. على الزر الأخضر مع شرطة للتصغير، أو على الأسهم الخضراء للخرائط المجاورة.


METAR-TAF: